Time;durP1;ratioP1;P1;durP2;ratioP2;P2;SDS_P1;SDS_P2;PMS_P1;PMS_P2;Temp;Humidity;BMP_temperature;BMP_pressure;BME280_temperature;BME280_humidity;BME280_pressure;Samples;Min_cycle;Max_cycle;Signal;HPM_P1;HPM_P2
2024/02/20 00:00:14;;;;;;;53.58;14.65;;;;;;;8.22;100.00;102895.38;5254748;28;20032;-79
2024/02/20 00:02:44;;;;;;;55.78;15.35;;;;;;;8.17;100.00;102900.19;5246336;28;20038;-79
2024/02/20 00:05:15;;;;;;;46.05;14.20;;;;;;;8.13;100.00;102898.66;5245817;28;20028;-77
2024/02/20 00:07:45;;;;;;;50.97;14.35;;;;;;;8.09;100.00;102897.16;5247167;28;20051;-79
2024/02/20 00:10:16;;;;;;;44.55;15.45;;;;;;;8.02;100.00;102894.88;5249262;28;20027;-76
2024/02/20 00:12:47;;;;;;;41.78;13.25;;;;;;;8.00;100.00;102898.63;5250424;28;20027;-77
2024/02/20 00:15:17;;;;;;;37.03;15.25;;;;;;;8.02;100.00;102894.00;5256364;28;20032;-77
2024/02/20 00:17:48;;;;;;;66.20;16.02;;;;;;;8.00;100.00;102882.56;5255378;28;20028;-76
2024/02/20 00:20:18;;;;;;;51.58;15.75;;;;;;;7.97;100.00;102898.81;5252343;28;20035;-76
2024/02/20 00:22:49;;;;;;;49.35;14.45;;;;;;;7.92;100.00;102895.56;5252646;28;20095;-76
2024/02/20 00:25:19;;;;;;;35.70;13.38;;;;;;;7.87;100.00;102895.88;5244441;28;20021;-80
2024/02/20 00:27:50;;;;;;;46.38;13.50;;;;;;;7.80;100.00;102899.91;5255744;28;20028;-78
2024/02/20 00:30:20;;;;;;;47.72;14.48;;;;;;;7.79;100.00;102903.53;5246115;28;20029;-76
2024/02/20 00:32:51;;;;;;;53.45;15.85;;;;;;;7.75;100.00;102902.88;5250763;28;20025;-76
2024/02/20 00:35:22;;;;;;;50.50;14.15;;;;;;;7.70;100.00;102894.28;5253062;28;20085;-78
2024/02/20 00:37:52;;;;;;;45.35;14.45;;;;;;;7.73;100.00;102903.91;5246297;28;20024;-77
2024/02/20 00:40:23;;;;;;;42.35;15.20;;;;;;;7.73;100.00;102895.88;5250658;28;20032;-76
2024/02/20 00:42:53;;;;;;;74.85;15.55;;;;;;;7.75;100.00;102907.34;5248917;28;20050;-76
2024/02/20 00:45:24;;;;;;;54.15;18.83;;;;;;;7.76;100.00;102909.91;5251530;28;20114;-81
2024/02/20 00:47:54;;;;;;;44.72;14.73;;;;;;;7.77;100.00;102910.78;5252100;28;20024;-77
2024/02/20 00:50:25;;;;;;;48.15;15.75;;;;;;;7.73;100.00;102903.91;5251068;28;20031;-76
2024/02/20 00:52:56;;;;;;;44.50;15.52;;;;;;;7.70;100.00;102906.78;5250521;28;20366;-81
2024/02/20 00:55:26;;;;;;;45.15;15.18;;;;;;;7.68;100.00;102906.91;5255339;28;20031;-77
2024/02/20 00:57:58;;;;;;;44.38;14.70;;;;;;;7.65;100.00;102909.75;5247228;28;20051;-77
2024/02/20 01:00:28;;;;;;;55.42;15.18;;;;;;;7.68;100.00;102906.00;5247482;28;20025;-79
2024/02/20 01:02:59;;;;;;;49.13;14.00;;;;;;;7.69;100.00;102908.59;5245375;28;20039;-82
2024/02/20 01:05:29;;;;;;;53.40;14.98;;;;;;;7.73;100.00;102903.91;5249324;28;20027;-76
2024/02/20 01:07:59;;;;;;;56.45;15.32;;;;;;;7.76;100.00;102906.38;5250120;28;20040;-76
2024/02/20 01:10:30;;;;;;;57.67;16.48;;;;;;;7.74;100.00;102903.81;5250078;28;20397;-79
2024/02/20 01:13:00;;;;;;;57.60;16.08;;;;;;;7.79;100.00;102912.41;5252696;28;20028;-79
2024/02/20 01:15:31;;;;;;;50.92;15.40;;;;;;;7.78;100.00;102901.78;5246566;28;20032;-77
2024/02/20 01:18:01;;;;;;;51.85;15.55;;;;;;;7.76;100.00;102901.91;5248323;28;20016;-76
2024/02/20 01:20:32;;;;;;;53.72;16.00;;;;;;;7.79;100.00;102907.06;5247074;28;20024;-76
2024/02/20 01:23:02;;;;;;;49.75;16.23;;;;;;;7.81;100.00;102890.06;5250445;28;20479;-79
2024/02/20 01:25:33;;;;;;;53.50;16.40;;;;;;;7.81;100.00;102900.75;5242862;28;20399;-79
2024/02/20 01:28:04;;;;;;;51.35;15.73;;;;;;;7.77;100.00;102898.25;5250051;28;20021;-76
2024/02/20 01:30:34;;;;;;;46.47;15.77;;;;;;;7.75;100.00;102900.19;5256732;28;20032;-76
2024/02/20 01:33:05;;;;;;;51.85;16.48;;;;;;;7.74;100.00;102893.13;5249849;28;20036;-78
2024/02/20 01:35:36;;;;;;;56.33;16.55;;;;;;;7.73;100.00;102882.53;5244474;28;20040;-78
2024/02/20 01:38:06;;;;;;;53.70;17.27;;;;;;;7.73;100.00;102890.53;5248520;28;20042;-80
2024/02/20 01:40:37;;;;;;;52.33;16.90;;;;;;;7.70;100.00;102888.09;5241161;28;20020;-80
2024/02/20 01:43:08;;;;;;;58.08;16.38;;;;;;;7.67;100.00;102885.59;5246564;28;20028;-76
2024/02/20 01:45:39;;;;;;;43.72;16.45;;;;;;;7.64;100.00;102892.00;5244561;28;20063;-81
2024/02/20 01:48:09;;;;;;;43.95;16.85;;;;;;;7.64;100.00;102893.81;5250483;28;20033;-77
2024/02/20 01:50:40;;;;;;;54.20;17.75;;;;;;;7.61;100.00;102905.53;5250655;28;20089;-74
2024/02/20 01:53:11;;;;;;;52.30;18.40;;;;;;;7.59;100.00;102903.94;5241081;28;20667;-76
2024/02/20 01:55:41;;;;;;;46.47;16.23;;;;;;;7.58;100.00;102899.53;5246899;28;20099;-75
2024/02/20 01:58:11;;;;;;;58.83;18.17;;;;;;;7.58;100.00;102899.53;5248940;28;20112;-75
2024/02/20 02:00:42;;;;;;;47.88;15.38;;;;;;;7.55;100.00;102887.25;5239995;28;20025;-75
2024/02/20 02:03:12;;;;;;;70.50;17.13;;;;;;;7.57;100.00;102890.66;5245679;28;20112;-76
2024/02/20 02:05:43;;;;;;;54.65;17.35;;;;;;;7.56;100.00;102885.44;5246342;28;20017;-76
2024/02/20 02:08:16;;;;;;;57.17;17.05;;;;;;;7.56;100.00;102904.13;5267097;28;20072;-75
2024/02/20 02:10:46;;;;;;;66.57;18.42;;;;;;;7.55;100.00;102897.06;5243971;28;20080;-76
2024/02/20 02:13:24;;;;;;;67.97;18.17;;;;;;;7.57;100.00;102900.50;5247554;28;20654;-75
2024/02/20 02:15:55;;;;;;;58.85;17.77;;;;;;;7.56;100.00;102890.78;5249293;28;20029;-76
2024/02/20 02:18:37;;;;;;;54.25;18.55;;;;;;;7.59;100.00;102901.28;5244142;28;20023;-75
2024/02/20 02:21:08;;;;;;;62.08;18.27;;;;;;;7.58;100.00;102895.06;5250489;28;20111;-75
2024/02/20 02:23:49;;;;;;;57.65;19.98;;;;;;;7.57;100.00;102901.34;5245691;28;20020;-75
2024/02/20 02:26:20;;;;;;;52.78;17.05;;;;;;;7.56;100.00;102898.78;5248019;28;20037;-75
2024/02/20 02:28:52;;;;;;;56.13;17.35;;;;;;;7.55;100.00;102892.59;5249304;28;20028;-75
2024/02/20 02:31:22;;;;;;;51.25;16.65;;;;;;;7.55;100.00;102892.59;5246426;28;20444;-75
2024/02/20 02:33:53;;;;;;;56.65;18.10;;;;;;;7.60;100.00;102887.81;5246694;28;20029;-75
2024/02/20 02:36:24;;;;;;;53.65;16.95;;;;;;;7.59;100.00;102888.78;5247988;28;20095;-75
2024/02/20 02:38:56;;;;;;;56.33;19.00;;;;;;;7.61;100.00;102888.66;5244848;28;20040;-76
2024/02/20 02:41:28;;;;;;;54.90;17.40;;;;;;;7.61;100.00;102884.19;5247064;28;20024;-75
2024/02/20 02:43:58;;;;;;;43.45;16.02;;;;;;;7.61;100.00;102889.53;5243656;28;20040;-75
2024/02/20 02:46:29;;;;;;;57.88;16.70;;;;;;;7.61;100.00;102886.00;5249299;28;20020;-75
2024/02/20 02:48:59;;;;;;;54.05;16.27;;;;;;;7.59;100.00;102879.91;5243256;28;20159;-75
2024/02/20 02:51:30;;;;;;;65.00;18.10;;;;;;;7.57;100.00;102881.78;5251589;28;20103;-75
2024/02/20 02:54:01;;;;;;;47.72;15.88;;;;;;;7.52;100.00;102888.28;5249842;28;20099;-76
2024/02/20 02:56:32;;;;;;;64.82;17.63;;;;;;;7.52;100.00;102882.94;5254377;28;20020;-76
2024/02/20 02:59:04;;;;;;;60.00;19.75;;;;;;;7.50;100.00;102887.53;5235765;28;20482;-74
2024/02/20 03:01:35;;;;;;;55.78;16.55;;;;;;;7.50;100.00;102886.69;5251486;28;20074;-76
2024/02/20 03:04:05;;;;;;;53.08;15.65;;;;;;;7.47;100.00;102892.19;5248107;28;20091;-76
2024/02/20 03:06:42;;;;;;;50.83;17.88;;;;;;;7.45;100.00;102889.63;5252138;28;20096;-76
2024/02/20 03:09:15;;;;;;;41.55;15.45;;;;;;;7.46;100.00;102893.16;5251644;28;20055;-76
2024/02/20 03:11:45;;;;;;;45.90;14.68;;;;;;;7.47;100.00;102900.22;5255675;28;20081;-76
2024/02/20 03:14:16;;;;;;;55.88;15.98;;;;;;;7.46;100.00;102902.03;5253955;28;20033;-75
2024/02/20 03:16:47;;;;;;;59.72;18.25;;;;;;;7.46;100.00;102895.84;5254288;28;20500;-75
2024/02/20 03:19:18;;;;;;;67.22;16.98;;;;;;;7.43;100.00;102894.22;5257354;28;20032;-75
2024/02/20 03:21:49;;;;;;;50.83;15.48;;;;;;;7.44;100.00;102895.94;5255044;28;20028;-75
2024/02/20 03:24:20;;;;;;;70.03;17.17;;;;;;;7.48;100.00;102900.13;5254617;28;20108;-75
2024/02/20 03:26:51;;;;;;;46.33;14.82;;;;;;;7.51;100.00;102902.59;5252181;28;20052;-75
2024/02/20 03:29:22;;;;;;;45.42;15.68;;;;;;;7.52;100.00;102906.97;5255485;28;20511;-75
2024/02/20 03:31:53;;;;;;;59.60;15.63;;;;;;;7.52;100.00;102912.31;5252611;28;20498;-75
2024/02/20 03:34:23;;;;;;;48.78;17.92;;;;;;;7.48;100.00;102910.81;5254719;28;20481;-75
2024/02/20 03:36:54;;;;;;;40.10;14.43;;;;;;;7.44;100.00;102906.63;5254954;28;20050;-75
2024/02/20 03:39:24;;;;;;;67.45;15.77;;;;;;;7.44;100.00;102914.63;5251581;28;20029;-75
2024/02/20 03:41:54;;;;;;;56.58;16.55;;;;;;;7.42;100.00;102903.16;5251799;28;20028;-76
2024/02/20 03:44:25;;;;;;;52.83;14.95;;;;;;;7.39;100.00;102902.53;5251940;28;20085;-75
2024/02/20 03:46:56;;;;;;;51.53;15.23;;;;;;;7.33;100.00;102902.88;5252972;28;20020;-76
2024/02/20 03:49:26;;;;;;;60.22;17.42;;;;;;;7.33;100.00;102900.19;5254962;28;20032;-76
2024/02/20 03:51:56;;;;;;;55.72;16.95;;;;;;;7.33;100.00;102887.75;5253796;28;20084;-76
2024/02/20 03:54:27;;;;;;;63.63;16.80;;;;;;;7.33;100.00;102882.41;5248628;28;20023;-76
2024/02/20 03:56:58;;;;;;;54.20;15.63;;;;;;;7.36;100.00;102890.19;5253577;28;20446;-76
2024/02/20 03:59:28;;;;;;;62.30;17.35;;;;;;;7.38;100.00;102888.31;5253837;28;20039;-76
2024/02/20 04:01:59;;;;;;;61.45;16.33;;;;;;;7.40;100.00;102888.22;5250473;28;20028;-76
2024/02/20 04:04:30;;;;;;;71.00;17.70;;;;;;;7.36;100.00;102879.53;5253845;28;20042;-76
2024/02/20 04:07:02;;;;;;;60.25;16.90;;;;;;;7.34;100.00;102886.78;5254028;28;20021;-76
2024/02/20 04:09:32;;;;;;;58.75;16.17;;;;;;;7.30;100.00;102887.91;5252065;28;20020;-75
2024/02/20 04:12:03;;;;;;;53.03;17.02;;;;;;;7.28;100.00;102879.16;5253509;28;20027;-76
2024/02/20 04:14:33;;;;;;;61.47;16.42;;;;;;;7.25;100.00;102874.00;5248980;28;20154;-76
2024/02/20 04:17:04;;;;;;;62.95;17.48;;;;;;;7.22;100.00;102876.84;5252331;28;20082;-75
2024/02/20 04:19:34;;;;;;;52.38;16.80;;;;;;;7.17;100.00;102868.25;5257262;28;20024;-76
2024/02/20 04:22:05;;;;;;;60.92;16.90;;;;;;;7.17;100.00;102876.28;5250729;28;20115;-76
2024/02/20 04:24:36;;;;;;;58.17;17.30;;;;;;;7.15;100.00;102876.38;5251523;28;20020;-76
2024/02/20 04:27:07;;;;;;;84.18;20.30;;;;;;;7.14;100.00;102872.00;5248567;28;20090;-76
2024/02/20 04:29:37;;;;;;;53.15;15.43;;;;;;;7.13;100.00;102870.28;5253525;28;20027;-76
2024/02/20 04:32:08;;;;;;;66.55;17.02;;;;;;;7.12;100.00;102876.56;5253795;28;20035;-76
2024/02/20 04:34:39;;;;;;;72.93;15.82;;;;;;;7.06;100.00;102874.25;5250749;28;20541;-75
2024/02/20 04:37:09;;;;;;;67.53;18.02;;;;;;;7.09;100.00;102871.44;5252095;28;20394;-76
2024/02/20 04:39:43;;;;;;;73.75;18.40;;;;;;;7.12;100.00;102881.88;5255065;28;20019;-75
2024/02/20 04:42:13;;;;;;;56.83;16.77;;;;;;;7.16;100.00;102871.88;5265213;28;20036;-76
2024/02/20 04:44:44;;;;;;;69.05;17.92;;;;;;;7.19;100.00;102877.06;5250544;28;20031;-76
2024/02/20 04:47:14;;;;;;;63.97;18.20;;;;;;;7.23;100.00;102883.94;5252224;28;20032;-75
2024/02/20 04:49:45;;;;;;;54.25;18.67;;;;;;;7.25;100.00;102882.00;5251242;28;20036;-76
2024/02/20 04:52:15;;;;;;;59.72;17.60;;;;;;;7.29;100.00;102880.00;5251350;28;20033;-76
2024/02/20 04:54:46;;;;;;;70.05;17.08;;;;;;;7.32;100.00;102883.31;5255944;28;20023;-76
2024/02/20 04:57:17;;;;;;;57.22;15.65;;;;;;;7.34;100.00;102880.59;5252525;28;20025;-76
2024/02/20 04:59:47;;;;;;;59.38;17.63;;;;;;;7.33;100.00;102878.84;5254410;28;20389;-76
2024/02/20 05:02:18;;;;;;;66.15;16.45;;;;;;;7.35;100.00;102880.47;5248534;28;20036;-76
2024/02/20 05:04:48;;;;;;;63.45;15.70;;;;;;;7.36;100.00;102876.00;5251890;28;20554;-76
2024/02/20 05:07:19;;;;;;;58.72;16.17;;;;;;;7.33;100.00;102866.38;5253898;28;20033;-75
2024/02/20 05:09:50;;;;;;;72.50;17.45;;;;;;;7.33;100.00;102881.50;5248056;28;20042;-75
2024/02/20 05:12:21;;;;;;;75.47;17.15;;;;;;;7.35;100.00;102876.97;5253060;28;20028;-76
2024/02/20 05:14:51;;;;;;;65.32;17.10;;;;;;;7.39;100.00;102868.66;5247807;28;20021;-76
2024/02/20 05:17:22;;;;;;;62.40;16.65;;;;;;;7.39;100.00;102870.47;5251394;28;20028;-75
2024/02/20 05:19:52;;;;;;;60.88;16.13;;;;;;;7.42;100.00;102868.44;5253226;28;20017;-76
2024/02/20 05:22:23;;;;;;;61.88;15.73;;;;;;;7.45;100.00;102862.94;5251586;28;20132;-76
2024/02/20 05:24:53;;;;;;;64.75;17.55;;;;;;;7.46;100.00;102858.44;5249069;28;20024;-76
2024/02/20 05:27:24;;;;;;;73.60;15.98;;;;;;;7.45;100.00;102854.06;5253646;28;20032;-76
2024/02/20 05:29:54;;;;;;;56.75;17.05;;;;;;;7.46;100.00;102853.09;5249594;28;20039;-76
2024/02/20 05:32:25;;;;;;;71.00;17.38;;;;;;;7.46;100.00;102855.78;5253504;28;20393;-76
2024/02/20 05:34:55;;;;;;;58.00;16.20;;;;;;;7.42;100.00;102852.44;5248873;28;20098;-76
2024/02/20 05:37:26;;;;;;;61.40;16.88;;;;;;;7.47;100.00;102853.00;5253994;28;20024;-75
2024/02/20 05:39:56;;;;;;;73.05;16.25;;;;;;;7.43;100.00;102861.28;5247786;28;20096;-76
2024/02/20 05:42:28;;;;;;;55.00;16.30;;;;;;;7.44;100.00;102863.03;5250351;28;20537;-76
2024/02/20 05:44:58;;;;;;;57.33;17.77;;;;;;;7.47;100.00;102874.34;5250781;28;20025;-75
2024/02/20 05:47:29;;;;;;;87.78;24.63;;;;;;;7.43;100.00;102888.00;5252342;28;20029;-76
2024/02/20 05:50:00;;;;;;;60.38;19.13;;;;;;;7.38;100.00;102888.31;5249906;28;20142;-76
2024/02/20 05:52:30;;;;;;;73.03;22.48;;;;;;;7.33;100.00;102895.75;5254923;28;20032;-75
2024/02/20 05:55:01;;;;;;;97.30;33.45;;;;;;;7.29;100.00;102890.69;5249254;28;20389;-75
2024/02/20 05:57:31;;;;;;;106.07;33.88;;;;;;;7.25;100.00;102884.69;5251396;28;20035;-76
2024/02/20 06:00:02;;;;;;;85.20;27.70;;;;;;;7.23;100.00;102891.94;5247983;28;20032;-75
2024/02/20 06:02:32;;;;;;;63.30;23.77;;;;;;;7.19;100.00;102877.91;5253994;28;20085;-76
2024/02/20 06:05:03;;;;;;;75.50;20.88;;;;;;;7.16;100.00;102885.25;5245906;28;20016;-75
2024/02/20 06:07:34;;;;;;;73.95;19.33;;;;;;;7.17;100.00;102886.94;5253758;28;20028;-76
2024/02/20 06:10:06;;;;;;;65.97;17.35;;;;;;;7.17;100.00;102886.94;5247093;28;20040;-76
2024/02/20 06:12:36;;;;;;;62.72;18.92;;;;;;;7.16;100.00;102893.25;5252297;28;20447;-76
2024/02/20 06:15:07;;;;;;;61.20;18.83;;;;;;;7.15;100.00;102891.53;5249814;28;20012;-76
2024/02/20 06:17:37;;;;;;;69.90;17.75;;;;;;;7.12;100.00;102883.69;5251036;28;20040;-75
2024/02/20 06:20:09;;;;;;;64.47;15.63;;;;;;;7.06;100.00;102870.75;5250791;28;20020;-76
2024/02/20 06:22:39;;;;;;;55.38;15.77;;;;;;;6.98;100.00;102872.09;5250390;28;20028;-76
2024/02/20 06:25:10;;;;;;;53.08;16.00;;;;;;;6.92;100.00;102868.91;5249551;28;20028;-75
2024/02/20 06:27:44;;;;;;;72.20;17.80;;;;;;;6.90;100.00;102877.00;5255053;28;20047;-75
2024/02/20 06:30:15;;;;;;;64.60;17.08;;;;;;;6.91;100.00;102877.88;5249644;28;20386;-75
2024/02/20 06:32:45;;;;;;;56.15;17.20;;;;;;;6.91;100.00;102888.53;5245705;28;20043;-76
2024/02/20 06:35:16;;;;;;;74.60;17.98;;;;;;;6.89;100.00;102875.31;5251671;28;20070;-76
2024/02/20 06:37:46;;;;;;;57.72;17.92;;;;;;;6.88;100.00;102883.41;5246804;28;20057;-75
2024/02/20 06:40:17;;;;;;;72.30;18.92;;;;;;;6.86;100.00;102885.28;5236745;28;20021;-75
2024/02/20 06:42:47;;;;;;;64.63;17.38;;;;;;;6.85;100.00;102880.91;5250125;28;20031;-75
2024/02/20 06:45:18;;;;;;;71.70;18.30;;;;;;;6.85;100.00;102883.59;5256375;28;20086;-76
2024/02/20 06:47:48;;;;;;;66.57;19.40;;;;;;;6.86;100.00;102895.97;5253096;28;20069;-76
2024/02/20 06:50:19;;;;;;;63.78;19.40;;;;;;;6.84;100.00;102889.88;5272466;28;20033;-75
2024/02/20 06:52:49;;;;;;;64.07;18.38;;;;;;;6.80;100.00;102886.53;5253583;28;20032;-75
2024/02/20 06:55:20;;;;;;;69.30;18.02;;;;;;;6.77;100.00;102884.03;5256718;28;20029;-76
2024/02/20 06:57:54;;;;;;;56.50;17.98;;;;;;;6.75;100.00;102885.94;5254041;28;20394;-76
2024/02/20 07:00:25;;;;;;;58.03;18.08;;;;;;;6.74;100.00;102892.25;5252620;28;20108;-76
2024/02/20 07:02:55;;;;;;;65.13;18.05;;;;;;;6.74;100.00;102897.56;5254331;28;20490;-76
2024/02/20 07:05:26;;;;;;;71.90;21.88;;;;;;;6.76;100.00;102895.66;5255231;28;20027;-75
2024/02/20 07:07:56;;;;;;;59.88;18.75;;;;;;;6.79;100.00;102892.81;5256120;28;20040;-76
2024/02/20 07:10:27;;;;;;;70.13;21.52;;;;;;;6.79;100.00;102887.47;5255072;28;20024;-76
2024/02/20 07:12:58;;;;;;;61.90;20.05;;;;;;;6.81;100.00;102890.06;5255113;28;20446;-75
2024/02/20 07:15:28;;;;;;;57.53;18.00;;;;;;;6.77;100.00;102889.38;5257791;28;20507;-75
2024/02/20 07:17:59;;;;;;;82.93;19.88;;;;;;;6.73;100.00;102883.38;5252711;28;20080;-76
2024/02/20 07:20:30;;;;;;;54.00;17.17;;;;;;;6.74;100.00;102886.91;5257973;28;20070;-76
2024/02/20 07:23:01;;;;;;;54.97;16.73;;;;;;;6.77;100.00;102883.19;5250322;28;20032;-76
2024/02/20 07:25:31;;;;;;;56.47;16.83;;;;;;;6.80;100.00;102878.53;5256261;28;20085;-76
2024/02/20 07:28:02;;;;;;;67.60;20.42;;;;;;;6.85;100.00;102872.91;5255104;28;20398;-76
2024/02/20 07:30:33;;;;;;;75.32;18.38;;;;;;;6.89;100.00;102875.31;5255646;28;20036;-76
2024/02/20 07:33:03;;;;;;;66.07;17.73;;;;;;;6.96;100.00;102878.44;5253845;28;20031;-75
2024/02/20 07:35:34;;;;;;;60.90;19.40;;;;;;;6.98;100.00;102874.75;5254195;28;20028;-76
2024/02/20 07:38:04;;;;;;;64.68;17.67;;;;;;;7.08;100.00;102874.16;5251550;28;20482;-75
2024/02/20 07:40:35;;;;;;;64.03;20.02;;;;;;;7.14;100.00;102879.16;5236918;28;20041;-75
2024/02/20 07:43:05;;;;;;;75.25;19.48;;;;;;;7.20;100.00;102890.31;5249339;28;20032;-75
2024/02/20 07:45:36;;;;;;;73.63;20.52;;;;;;;7.28;100.00;102889.84;5259142;28;20385;-75
2024/02/20 07:48:11;;;;;;;66.03;20.38;;;;;;;7.36;100.00;102890.19;5251142;28;20025;-75
2024/02/20 07:50:41;;;;;;;;;;;;;;;7.38;100.00;102882.97;5239554;28;20035;-75
2024/02/20 07:53:12;;;;;;;57.58;19.15;;;;;;;7.38;100.00;102885.66;5255370;28;19961;-75
2024/02/20 07:55:42;;;;;;;69.07;20.48;;;;;;;7.46;100.00;102885.16;5255233;28;20029;-76
2024/02/20 07:58:13;;;;;;;71.57;20.25;;;;;;;7.50;100.00;102879.53;5255824;28;20036;-75
2024/02/20 08:00:44;;;;;;;60.35;18.58;;;;;;;7.51;100.00;102878.56;5235679;28;20103;-75
2024/02/20 08:03:14;;;;;;;65.25;19.80;;;;;;;7.58;100.00;102872.81;5254638;28;20033;-76
2024/02/20 08:05:45;;;;;;;54.85;16.80;;;;;;;7.64;100.00;102870.63;5254165;28;20028;-76
2024/02/20 08:08:16;;;;;;;54.20;16.73;;;;;;;7.70;100.00;102872.91;5255710;28;20135;-75
2024/02/20 08:10:46;;;;;;;58.35;16.20;;;;;;;7.76;100.00;102877.84;5253848;28;20028;-74
2024/02/20 08:13:17;;;;;;;68.30;16.40;;;;;;;7.88;100.00;102884.25;5248862;28;20024;-75
2024/02/20 08:15:47;;;;;;;57.22;16.30;;;;;;;7.91;100.00;102884.03;5254463;28;20358;-75
2024/02/20 08:18:18;;;;;;;60.47;15.27;;;;;;;7.95;100.00;102893.56;5266973;28;20016;-75
2024/02/20 08:20:49;;;;;;;51.15;17.00;;;;;;;7.95;100.00;102890.91;5256355;28;20028;-75
2024/02/20 08:23:20;;;;;;;57.28;17.17;;;;;;;7.98;100.00;102893.38;5250748;28;20489;-76
2024/02/20 08:25:50;;;;;;;55.83;16.52;;;;;;;8.04;100.00;102890.31;5254071;28;20020;-76
2024/02/20 08:28:21;;;;;;;48.45;15.35;;;;;;;8.07;100.00;102889.22;5250583;28;20040;-75
2024/02/20 08:30:51;;;;;;;52.42;15.48;;;;;;;8.18;100.00;102892.09;5233667;28;20105;-75
2024/02/20 08:33:22;;;;;;;65.40;16.15;;;;;;;8.22;100.00;102896.25;5254048;28;20032;-76
2024/02/20 08:35:54;;;;;;;57.65;16.77;;;;;;;8.23;100.00;102897.97;5234675;28;20027;-75
2024/02/20 08:38:24;;;;;;;48.22;16.15;;;;;;;8.31;100.00;102916.19;5253440;28;20082;-76
2024/02/20 08:40:54;;;;;;;58.10;16.20;;;;;;;8.28;100.00;102911.03;5249022;28;20032;-76
2024/02/20 08:43:25;;;;;;;64.70;17.52;;;;;;;8.36;100.00;102916.75;5252656;28;20051;-76
2024/02/20 08:45:55;;;;;;;54.00;14.43;;;;;;;8.57;100.00;102901.94;5256022;28;20095;-76
2024/02/20 08:48:26;;;;;;;55.42;15.20;;;;;;;8.74;100.00;102906.19;5254142;28;20039;-76
2024/02/20 08:50:57;;;;;;;49.28;14.30;;;;;;;8.91;100.00;102901.50;5257047;28;20020;-76
2024/02/20 08:53:27;;;;;;;46.05;15.43;;;;;;;9.08;100.00;102898.50;5256806;28;20157;-75
2024/02/20 08:55:57;;;;;;;56.63;15.18;;;;;;;9.23;100.00;102901.91;5230780;28;20056;-76
2024/02/20 08:58:28;;;;;;;47.75;14.80;;;;;;;9.70;100.00;102898.56;5257694;28;20389;-77
2024/02/20 09:00:59;;;;;;;48.45;14.82;;;;;;;9.96;100.00;102899.34;5253488;28;20100;-76
2024/02/20 09:03:30;;;;;;;53.20;14.05;;;;;;;10.37;100.00;102903.50;5254687;28;20462;-76
2024/02/20 09:06:01;;;;;;;40.17;12.75;;;;;;;10.22;100.00;102894.72;5254041;28;20104;-76
2024/02/20 09:08:32;;;;;;;39.92;12.23;;;;;;;10.24;100.00;102905.38;5255730;28;20036;-76
2024/02/20 09:11:04;;;;;;;47.05;12.43;;;;;;;10.33;100.00;102902.00;5247662;28;20039;-77
2024/02/20 09:13:35;;;;;;;46.97;12.43;;;;;;;10.22;100.00;102896.56;5251574;28;20036;-76
2024/02/20 09:16:06;;;;;;;40.72;12.45;;;;;;;9.95;100.00;102900.31;5256880;28;20094;-76
2024/02/20 09:18:37;;;;;;;39.55;12.13;;;;;;;9.74;100.00;102889.34;5238962;28;20028;-76
2024/02/20 09:21:08;;;;;;;40.88;12.65;;;;;;;9.82;100.00;102894.13;5255466;28;20043;-75
2024/02/20 09:23:38;;;;;;;43.20;12.18;;;;;;;9.80;100.00;102890.72;5255159;28;20028;-76
2024/02/20 09:26:09;;;;;;;59.55;13.90;;;;;;;9.90;100.00;102889.06;5256357;28;20112;-76
2024/02/20 09:28:40;;;;;;;47.63;12.98;;;;;;;10.02;100.00;102888.16;5258401;28;20047;-76
2024/02/20 09:31:11;;;;;;;43.15;11.77;;;;;;;10.36;100.00;102886.53;5247746;28;20500;-76
2024/02/20 09:33:41;;;;;;;40.17;11.48;;;;;;;10.58;100.00;102890.28;5239841;28;20032;-76
2024/02/20 09:36:12;;;;;;;37.85;10.57;;;;;;;10.71;100.00;102879.47;5269227;28;20190;-76
2024/02/20 09:38:43;;;;;;;47.90;11.23;;;;;;;10.63;100.00;102880.03;5248647;28;20020;-76
2024/02/20 09:41:26;;;;;;;38.50;10.43;;;;;;;10.70;100.00;102883.16;5254032;28;20562;-76
2024/02/20 09:43:57;;;;;;;36.45;10.90;;;;;;;10.87;100.00;102885.38;5253624;28;20020;-76
2024/02/20 09:46:29;;;;;;;34.10;9.38;;;;;;;10.92;100.00;102888.56;5257579;28;20466;-76
2024/02/20 09:49:00;;;;;;;47.38;10.75;;;;;;;10.84;100.00;102883.78;5248087;28;20085;-77
2024/02/20 09:51:32;;;;;;;36.22;10.07;;;;;;;10.97;100.00;102881.00;5253984;28;20032;-76
2024/02/20 09:54:04;;;;;;;27.60;9.23;;;;;;;11.14;100.00;102877.88;5251855;28;20036;-76
2024/02/20 09:56:37;;;;;;;38.05;9.65;;;;;;;11.08;100.00;102885.53;5256345;28;20027;-76
2024/02/20 09:59:09;;;;;;;36.80;9.13;;;;;;;10.97;100.00;102894.44;5251580;28;20029;-75
2024/02/20 10:01:39;;;;;;;40.47;9.88;;;;;;;11.07;100.00;102889.19;5257732;28;20393;-76
2024/02/20 10:04:10;;;;;;;35.50;8.98;;;;;;;10.97;100.00;102891.75;5256919;28;20021;-76
2024/02/20 10:06:41;;;;;;;34.30;9.02;;;;;;;11.00;100.00;102894.19;5260105;28;20032;-76
2024/02/20 10:09:12;;;;;;;42.13;8.73;;;;;;;11.17;100.00;102882.13;5271917;28;20078;-76
2024/02/20 10:11:42;;;;;;;30.10;9.32;;;;;;;11.38;100.00;102880.41;5259128;28;20136;-77
2024/02/20 10:14:13;;;;;;;33.50;8.70;;;;;;;11.57;100.00;102862.81;5270645;28;20545;-76
2024/02/20 10:16:43;;;;;;;33.55;8.07;;;;;;;11.55;100.00;102870.16;5256701;28;20493;-76
2024/02/20 10:19:19;;;;;;;25.73;7.97;;;;;;;11.70;100.00;102873.44;5257261;28;20024;-76
2024/02/20 10:21:51;;;;;;;37.00;8.70;;;;;;;11.66;100.00;102870.16;5254760;28;20064;-76
2024/02/20 10:24:21;;;;;;;28.73;8.02;;;;;;;11.67;100.00;102867.34;5258377;28;20036;-76
2024/02/20 10:26:52;;;;;;;32.67;8.23;;;;;;;11.62;100.00;102857.94;5252790;28;20486;-76
2024/02/20 10:29:22;;;;;;;30.33;8.55;;;;;;;11.75;100.00;102863.19;5258928;28;20048;-76
2024/02/20 10:31:53;;;;;;;34.50;8.25;;;;;;;11.99;100.00;102861.19;5254954;28;20032;-77
2024/02/20 10:34:23;;;;;;;33.58;8.70;;;;;;;12.11;100.00;102849.41;5256373;28;20121;-76
2024/02/20 10:37:05;;;;;;;32.38;7.18;;;;;;;12.30;100.00;102861.31;5256432;28;20110;-76
2024/02/20 10:39:35;;;;;;;31.13;7.78;;;;;;;12.31;100.00;102857.66;5254600;28;20028;-75
2024/02/20 10:42:08;;;;;;;36.42;7.32;;;;;;;12.41;100.00;102847.84;5255377;28;20094;-76
2024/02/20 10:44:41;;;;;;;36.50;7.38;;;;;;;12.47;100.00;102855.38;5254559;28;20034;-76
2024/02/20 10:47:12;;;;;;;68.95;22.80;;;;;;;12.63;100.00;102853.09;5253993;28;20051;-76
2024/02/20 10:49:42;;;;;;;29.38;7.18;;;;;;;12.69;100.00;102854.41;5254472;28;20062;-76
2024/02/20 10:52:13;;;;;;;38.83;8.02;;;;;;;12.79;100.00;102852.63;5270246;28;20028;-77
2024/02/20 10:54:44;;;;;;;26.27;7.95;;;;;;;12.91;100.00;102843.50;5256942;28;20032;-76
2024/02/20 10:57:16;;;;;;;53.22;18.27;;;;;;;13.02;100.00;102837.16;5252967;28;20032;-76
2024/02/20 10:59:49;;;;;;;33.80;7.57;;;;;;;12.91;100.00;102840.81;5258862;28;20080;-77
2024/02/20 11:02:21;;;;;;;32.47;7.07;;;;;;;13.11;100.00;102832.81;5271096;28;20083;-76
2024/02/20 11:04:52;;;;;;;28.52;6.25;;;;;;;13.21;100.00;102831.91;5258315;28;20035;-76
2024/02/20 11:07:22;;;;;;;19.67;5.97;;;;;;;13.40;100.00;102827.56;5256306;28;20444;-77
2024/02/20 11:10:05;;;;;;;31.83;6.20;;;;;;;13.63;100.00;102823.66;5258557;28;20467;-76
2024/02/20 11:12:37;;;;;;;30.52;6.13;;;;;;;13.68;100.00;102828.66;5259679;28;20090;-76
2024/02/20 11:15:10;;;;;;;29.98;6.88;;;;;;;13.88;100.00;102819.59;5260752;28;20031;-77
2024/02/20 11:17:42;;;;;;;23.15;5.68;;;;;;;13.69;100.00;102815.00;5263971;28;20473;-77
2024/02/20 11:20:17;;;;;;;27.08;5.75;;;;;;;13.76;100.00;102806.38;5279349;28;20085;-77
2024/02/20 11:22:49;;;;;;;;;;;;;;;13.38;100.00;102806.13;5263857;28;20028;-76
2024/02/20 11:25:20;;;;;;;30.15;5.53;;;;;;;13.33;100.00;102805.69;5261544;28;19912;-77